createdAt,value
2023-04-10T00:00:57.967Z,69.78
2023-04-10T00:02:01.024Z,69.75
2023-04-10T00:03:04.351Z,69.81
2023-04-10T00:04:07.519Z,69.76
2023-04-10T00:05:11.546Z,69.67
2023-04-10T00:06:14.549Z,69.73
2023-04-10T00:07:17.526Z,69.72
2023-04-10T00:08:23.152Z,69.77
2023-04-10T00:09:26.610Z,69.67
2023-04-10T00:10:31.687Z,69.58
2023-04-10T00:11:34.605Z,69.67
2023-04-10T00:12:40.235Z,69.72
2023-04-10T00:13:43.582Z,69.74
2023-04-10T00:14:46.472Z,69.61
2023-04-10T00:15:50.260Z,69.56
2023-04-10T00:16:53.210Z,69.57
2023-04-10T00:17:56.267Z,69.55
2023-04-10T00:18:59.097Z,69.56
2023-04-10T00:20:02.342Z,69.48
2023-04-10T00:21:06.116Z,69.35
2023-04-10T00:22:08.916Z,69.38
2023-04-10T00:23:11.699Z,69.37
2023-04-10T00:24:14.589Z,69.37
2023-04-10T00:25:17.624Z,69.33
2023-04-10T00:26:21.154Z,69.36
2023-04-10T00:27:24.229Z,69.42
2023-04-10T00:28:27.423Z,69.45
2023-04-10T00:29:30.405Z,69.33
2023-04-10T00:30:33.533Z,69.44
2023-04-10T00:31:36.495Z,69.29
2023-04-10T00:32:39.395Z,69.14
2023-04-10T00:33:42.559Z,69.19
2023-04-10T00:34:45.456Z,69.19
2023-04-10T00:35:48.407Z,69.37
2023-04-10T00:36:51.527Z,69.46
2023-04-10T00:37:56.432Z,69.50
2023-04-10T00:38:59.637Z,69.46
2023-04-10T00:40:03.209Z,69.39
2023-04-10T00:41:06.838Z,69.46
2023-04-10T00:42:10.097Z,69.53
2023-04-10T00:43:13.073Z,69.51
2023-04-10T00:44:16.264Z,69.57
2023-04-10T00:45:19.345Z,69.59
2023-04-10T00:46:22.835Z,69.65
2023-04-10T00:47:27.506Z,69.62
2023-04-10T00:48:30.560Z,69.65
2023-04-10T00:49:34.661Z,69.52
2023-04-10T00:50:37.899Z,69.51
2023-04-10T00:51:41.845Z,69.50
2023-04-10T00:52:44.726Z,69.70
2023-04-10T00:53:48.398Z,69.56
2023-04-10T00:54:51.254Z,69.51
2023-04-10T00:55:56.041Z,69.64
2023-04-10T00:56:59.803Z,69.83
2023-04-10T00:58:02.631Z,69.99
2023-04-10T00:59:07.198Z,70.00
2023-04-10T01:00:10.903Z,70.14
2023-04-10T01:01:14.375Z,69.89
2023-04-10T01:02:17.328Z,69.80
2023-04-10T01:03:21.860Z,69.58
2023-04-10T01:04:28.927Z,69.85
2023-04-10T01:05:56.914Z,69.73
2023-04-10T01:07:10.022Z,69.77
2023-04-10T01:08:33.566Z,70.18
2023-04-10T01:09:48.906Z,70.42
2023-04-10T01:11:00.753Z,70.46
2023-04-10T01:12:18.845Z,70.20
2023-04-10T01:13:36.054Z,70.36
2023-04-10T01:14:42.099Z,70.38
2023-04-10T01:16:02.983Z,70.27
2023-04-10T01:17:12.026Z,70.35
2023-04-10T01:18:22.935Z,70.37
2023-04-10T01:19:38.358Z,70.16
2023-04-10T01:20:42.588Z,70.22
2023-04-10T01:21:46.172Z,70.16
2023-04-10T01:23:03.058Z,70.13
2023-04-10T01:24:18.902Z,70.08
2023-04-10T01:25:46.470Z,70.15
2023-04-10T01:27:11.246Z,70.23
2023-04-10T01:28:30.465Z,70.24
2023-04-10T01:29:36.262Z,70.24
2023-04-10T01:32:18.367Z,70.27
2023-04-10T01:33:26.664Z,70.08
2023-04-10T01:34:39.533Z,70.04
2023-04-10T01:35:47.670Z,70.00
2023-04-10T01:36:56.606Z,69.58
2023-04-10T01:38:02.272Z,69.58
2023-04-10T01:39:06.900Z,69.62
2023-04-10T01:40:14.422Z,69.67
2023-04-10T01:41:20.021Z,69.74
2023-04-10T01:42:25.509Z,69.71
2023-04-10T01:43:31.476Z,69.79
2023-04-10T01:44:38.284Z,69.66
2023-04-10T01:45:43.764Z,69.58
2023-04-10T01:46:49.783Z,69.53
2023-04-10T01:47:53.519Z,69.72
2023-04-10T01:48:59.157Z,69.66
2023-04-10T01:50:04.100Z,69.71
2023-04-10T01:51:11.307Z,69.83
2023-04-10T01:52:15.876Z,69.89
2023-04-10T01:53:24.617Z,70.00
2023-04-10T01:54:28.365Z,70.10
2023-04-10T01:55:32.234Z,70.11
2023-04-10T01:56:38.946Z,70.18
2023-04-10T01:57:42.088Z,70.09
2023-04-10T01:58:45.567Z,70.20
2023-04-10T01:59:50.828Z,70.24
2023-04-10T02:00:53.813Z,70.16
2023-04-10T02:02:01.426Z,70.18
2023-04-10T02:03:04.712Z,70.27
2023-04-10T02:04:07.840Z,70.39
2023-04-10T02:05:11.194Z,70.50
2023-04-10T02:06:41.623Z,70.52
2023-04-10T02:07:57.640Z,70.65
2023-04-10T02:09:12.598Z,70.65
2023-04-10T02:10:22.595Z,70.69
2023-04-10T02:11:51.671Z,70.65
2023-04-10T02:13:05.553Z,70.76
2023-04-10T02:14:12.055Z,70.60
2023-04-10T02:15:21.593Z,70.50
2023-04-10T02:16:25.436Z,70.46
2023-04-10T02:17:31.283Z,70.39
2023-04-10T02:18:35.745Z,70.35
2023-04-10T02:19:39.941Z,70.34
2023-04-10T02:20:43.336Z,70.33
2023-04-10T02:21:49.595Z,70.30
2023-04-10T02:22:54.322Z,70.22
2023-04-10T02:23:58.700Z,70.17
2023-04-10T02:25:04.805Z,70.15
2023-04-10T02:26:11.066Z,70.12
2023-04-10T02:27:14.146Z,70.07
2023-04-10T02:28:16.898Z,70.04
2023-04-10T02:29:20.318Z,70.02
2023-04-10T02:30:24.777Z,69.97
2023-04-10T02:31:28.022Z,69.98
2023-04-10T02:32:33.526Z,69.94
2023-04-10T02:33:36.679Z,69.97
2023-04-10T02:34:39.899Z,69.95
2023-04-10T02:35:42.955Z,69.97
2023-04-10T02:36:46.086Z,69.92
2023-04-10T02:37:50.814Z,69.96
2023-04-10T02:38:53.897Z,69.97
2023-04-10T02:39:58.636Z,70.01
2023-04-10T02:41:02.969Z,69.94
2023-04-10T02:42:05.792Z,69.89
2023-04-10T02:43:08.658Z,69.79
2023-04-10T02:44:11.614Z,69.77
2023-04-10T02:45:14.641Z,69.77
2023-04-10T02:46:18.671Z,69.86
2023-04-10T02:47:22.093Z,69.97
2023-04-10T02:48:25.140Z,70.03
2023-04-10T02:49:31.678Z,70.13
2023-04-10T02:50:35.470Z,70.20
2023-04-10T02:51:38.461Z,70.32
2023-04-10T02:52:42.005Z,70.43
2023-04-10T02:53:44.946Z,70.46
2023-04-10T02:54:59.750Z,70.53
2023-04-10T02:56:03.694Z,70.59
2023-04-10T02:57:06.668Z,70.66
2023-04-10T02:58:09.713Z,70.71
2023-04-10T02:59:13.391Z,70.68
2023-04-10T03:00:16.993Z,70.66
2023-04-10T03:01:40.926Z,70.81
2023-04-10T03:02:44.191Z,70.68
2023-04-10T03:03:51.411Z,70.69
2023-04-10T03:05:02.187Z,70.69
2023-04-10T03:06:06.898Z,70.61
2023-04-10T03:07:11.064Z,70.58
2023-04-10T03:08:14.414Z,70.58
2023-04-10T03:09:17.320Z,70.52
2023-04-10T03:10:20.280Z,70.38
2023-04-10T03:11:23.658Z,70.27
2023-04-10T03:12:26.504Z,70.25
2023-04-10T03:13:29.422Z,70.23
2023-04-10T03:14:32.394Z,70.26
2023-04-10T03:15:35.523Z,70.26
2023-04-10T03:16:38.538Z,70.27
2023-04-10T03:17:41.729Z,70.27
2023-04-10T03:18:45.586Z,70.30
2023-04-10T03:19:48.373Z,70.38
2023-04-10T03:20:51.652Z,70.40
2023-04-10T03:21:55.810Z,70.43
2023-04-10T03:23:01.563Z,70.48
2023-04-10T03:24:04.639Z,70.46
2023-04-10T03:25:08.263Z,70.37
2023-04-10T03:26:11.602Z,70.43
2023-04-10T03:27:14.825Z,70.30
2023-04-10T03:28:17.886Z,70.30
2023-04-10T03:29:20.891Z,70.28
2023-04-10T03:30:23.740Z,70.35
2023-04-10T03:31:27.233Z,70.33
2023-04-10T03:32:32.177Z,70.43
2023-04-10T03:33:36.075Z,70.45
2023-04-10T03:34:38.961Z,70.31
2023-04-10T03:35:42.243Z,70.33
2023-04-10T03:36:45.372Z,70.49
2023-04-10T03:37:48.261Z,70.57
2023-04-10T03:38:52.918Z,70.50
2023-04-10T03:39:56.010Z,70.67
2023-04-10T03:40:59.162Z,70.83
2023-04-10T03:42:03.937Z,70.88
2023-04-10T03:43:06.827Z,70.88
2023-04-10T03:44:09.931Z,70.89
2023-04-10T03:45:13.056Z,70.94
2023-04-10T03:46:16.375Z,70.79
2023-04-10T03:47:20.214Z,70.88
2023-04-10T03:48:28.483Z,70.99
2023-04-10T03:49:31.580Z,71.08
2023-04-10T03:50:39.617Z,71.15
2023-04-10T03:51:42.437Z,71.07
2023-04-10T03:52:45.367Z,71.06
2023-04-10T03:53:51.481Z,71.14
2023-04-10T03:54:54.983Z,71.07
2023-04-10T03:56:01.213Z,71.02
2023-04-10T03:57:04.515Z,70.85
2023-04-10T03:58:07.455Z,70.81
2023-04-10T03:59:11.509Z,70.78
2023-04-10T04:00:16.960Z,70.69
2023-04-10T04:01:26.156Z,70.85
2023-04-10T04:02:38.333Z,70.78
2023-04-10T04:03:42.068Z,70.82
2023-04-10T04:05:04.382Z,70.86
2023-04-10T04:06:38.304Z,71.06
2023-04-10T04:07:59.124Z,71.27
2023-04-10T04:09:13.852Z,71.58
2023-04-10T04:10:40.024Z,71.53
2023-04-10T04:12:00.221Z,71.53
2023-04-10T04:13:29.065Z,71.55
2023-04-10T04:14:45.336Z,71.57
2023-04-10T04:16:00.532Z,71.53
2023-04-10T04:17:18.452Z,71.53
2023-04-10T04:18:39.705Z,71.48
2023-04-10T04:19:54.193Z,71.37
2023-04-10T04:21:12.847Z,71.43
2023-04-10T04:22:47.595Z,71.46
2023-04-10T04:23:50.458Z,71.17
2023-04-10T04:25:11.570Z,71.21
2023-04-10T04:26:33.666Z,71.25
2023-04-10T04:27:49.758Z,71.22
2023-04-10T04:29:18.961Z,71.20
2023-04-10T04:30:38.454Z,71.34
2023-04-10T04:31:48.324Z,71.27
2023-04-10T04:33:10.075Z,71.33
2023-04-10T04:34:32.283Z,71.34
2023-04-10T04:35:58.216Z,71.36
2023-04-10T04:37:15.925Z,71.25
2023-04-10T04:38:39.029Z,71.15
2023-04-10T04:39:48.092Z,70.99
2023-04-10T04:41:09.409Z,71.01
2023-04-10T04:42:31.058Z,71.01
2023-04-10T04:44:04.869Z,71.11
2023-04-10T04:45:34.053Z,71.16
2023-04-10T04:46:55.541Z,71.16
2023-04-10T04:48:04.624Z,71.17
2023-04-10T04:49:46.200Z,71.13
2023-04-10T04:50:49.121Z,70.91
2023-04-10T04:52:12.072Z,70.89
2023-04-10T04:53:18.498Z,70.75
2023-04-10T04:54:40.171Z,70.66
2023-04-10T04:55:58.398Z,70.62
2023-04-10T04:57:14.526Z,70.45
2023-04-10T04:58:40.200Z,70.29
2023-04-10T04:59:52.386Z,70.23
2023-04-10T05:01:13.877Z,70.10
2023-04-10T05:02:31.015Z,70.21
2023-04-10T05:03:57.484Z,70.04
2023-04-10T05:05:30.352Z,70.08
2023-04-10T05:06:53.480Z,70.00
2023-04-10T05:08:26.417Z,70.00
2023-04-10T05:10:08.688Z,69.86
2023-04-10T05:11:58.997Z,69.74
2023-04-10T05:13:22.787Z,69.49
2023-04-10T05:14:45.348Z,69.20
2023-04-10T05:16:08.840Z,68.85
2023-04-10T05:17:17.393Z,68.24
2023-04-10T05:18:39.761Z,68.31
2023-04-10T05:19:54.675Z,68.18
2023-04-10T05:21:21.062Z,68.07
2023-04-10T05:22:42.336Z,67.79
2023-04-10T05:24:10.159Z,67.97
2023-04-10T05:25:24.587Z,67.97
2023-04-10T05:26:42.559Z,67.84
2023-04-10T05:28:01.346Z,67.52
2023-04-10T05:29:23.519Z,67.70
2023-04-10T05:30:52.293Z,67.34
2023-04-10T05:32:24.248Z,67.14
2023-04-10T05:33:37.493Z,67.02
2023-04-10T05:34:58.468Z,66.63
2023-04-10T05:36:11.232Z,66.22
2023-04-10T05:37:28.916Z,66.14
2023-04-10T05:38:36.357Z,65.94
2023-04-10T05:39:50.693Z,65.96
2023-04-10T05:41:16.648Z,65.58
2023-04-10T05:42:35.469Z,65.66
2023-04-10T05:44:00.568Z,65.86
2023-04-10T05:45:11.163Z,65.53
2023-04-10T05:46:34.497Z,65.00
2023-04-10T05:47:58.888Z,64.31
2023-04-10T05:49:24.669Z,64.85
2023-04-10T05:50:37.317Z,65.05
2023-04-10T05:51:50.560Z,64.72
2023-04-10T05:53:05.703Z,64.55
2023-04-10T05:54:20.512Z,63.97
2023-04-10T05:55:56.711Z,63.80
2023-04-10T05:57:18.285Z,63.40
2023-04-10T05:58:21.093Z,62.96
2023-04-10T05:59:46.720Z,62.81
2023-04-10T06:01:15.703Z,62.94
2023-04-10T06:02:28.986Z,62.76
2023-04-10T06:03:32.272Z,62.98
2023-04-10T06:04:37.229Z,62.83
2023-04-10T06:05:41.564Z,62.56
2023-04-10T06:06:44.510Z,61.86
2023-04-10T06:07:47.401Z,61.79
2023-04-10T06:08:50.974Z,61.69
2023-04-10T06:09:53.797Z,61.37
2023-04-10T06:10:57.277Z,61.10
2023-04-10T06:12:01.403Z,61.01
2023-04-10T06:13:04.613Z,60.96
2023-04-10T06:14:07.578Z,61.00
2023-04-10T06:15:17.017Z,60.87
2023-04-10T06:16:20.553Z,60.86
2023-04-10T06:17:25.842Z,60.93
2023-04-10T06:18:29.421Z,60.95
2023-04-10T06:19:32.287Z,60.94
2023-04-10T06:20:35.158Z,60.55
2023-04-10T06:21:37.981Z,60.44
2023-04-10T06:22:41.081Z,60.32
2023-04-10T06:23:44.163Z,60.29
2023-04-10T06:24:47.361Z,60.02
2023-04-10T06:25:50.330Z,59.58
2023-04-10T06:26:54.288Z,59.51
2023-04-10T06:27:57.404Z,59.18
2023-04-10T06:29:01.270Z,59.10
2023-04-10T06:30:04.348Z,59.44
2023-04-10T06:31:07.524Z,59.85
2023-04-10T06:32:11.839Z,60.30
2023-04-10T06:33:16.404Z,60.97
2023-04-10T06:34:20.558Z,61.32
2023-04-10T06:35:32.792Z,61.72
2023-04-10T06:36:36.093Z,61.37
2023-04-10T06:37:41.122Z,60.99
2023-04-10T06:38:44.731Z,62.21
2023-04-10T06:39:48.063Z,61.44
2023-04-10T06:40:50.867Z,62.21
2023-04-10T06:41:53.806Z,62.09
2023-04-10T06:43:05.152Z,61.76
2023-04-10T06:44:14.083Z,61.67
2023-04-10T06:45:16.922Z,61.67
2023-04-10T06:46:20.572Z,61.40
2023-04-10T06:47:23.876Z,60.61
2023-04-10T06:48:27.081Z,60.74
2023-04-10T06:49:29.945Z,60.17
2023-04-10T06:50:33.541Z,59.86
2023-04-10T06:51:36.577Z,59.58
2023-04-10T06:52:39.575Z,58.58
2023-04-10T06:53:42.524Z,58.18
2023-04-10T06:54:45.432Z,57.20
2023-04-10T06:55:48.943Z,58.23
2023-04-10T06:56:51.799Z,58.81
2023-04-10T06:57:56.174Z,58.99
2023-04-10T06:58:59.204Z,59.42
2023-04-10T07:00:02.180Z,59.59
2023-04-10T07:01:05.605Z,59.57
2023-04-10T07:02:08.569Z,60.43
2023-04-10T07:03:11.413Z,60.12
2023-04-10T07:04:14.674Z,60.81
2023-04-10T07:05:17.817Z,61.00
2023-04-10T07:06:21.147Z,60.98
2023-04-10T07:07:24.229Z,61.47
2023-04-10T07:08:27.097Z,61.33
2023-04-10T07:09:30.814Z,61.93
2023-04-10T07:10:33.809Z,62.18
2023-04-10T07:11:36.842Z,62.18
2023-04-10T07:12:40.007Z,61.40
2023-04-10T07:13:42.940Z,61.32
2023-04-10T07:14:46.239Z,61.38
2023-04-10T07:15:49.264Z,61.73
2023-04-10T07:16:54.137Z,62.07
2023-04-10T07:17:57.086Z,62.05
2023-04-10T07:19:00.020Z,62.71
2023-04-10T07:20:03.455Z,62.22
2023-04-10T07:21:13.205Z,62.04
2023-04-10T07:22:16.885Z,61.80
2023-04-10T07:23:20.526Z,61.30
2023-04-10T07:24:23.656Z,61.02
2023-04-10T07:25:26.425Z,60.33
2023-04-10T07:26:29.283Z,60.14
2023-04-10T07:27:32.322Z,59.80
2023-04-10T07:28:35.240Z,59.40
2023-04-10T07:29:38.088Z,59.11
2023-04-10T07:30:41.519Z,59.00
2023-04-10T07:31:44.750Z,59.03
2023-04-10T07:32:48.517Z,58.83
2023-04-10T07:33:51.953Z,58.83
2023-04-10T07:34:54.850Z,58.25
2023-04-10T07:35:57.839Z,58.40
2023-04-10T07:37:00.877Z,59.46
2023-04-10T07:38:04.753Z,59.11
2023-04-10T07:39:07.676Z,59.37
2023-04-10T07:40:11.278Z,59.60
2023-04-10T07:41:14.448Z,59.46
2023-04-10T07:42:17.345Z,59.21
2023-04-10T07:43:21.561Z,58.45
2023-04-10T07:44:26.813Z,58.68
2023-04-10T07:45:29.788Z,59.05
2023-04-10T07:46:32.733Z,59.23
2023-04-10T07:47:35.902Z,59.82
2023-04-10T07:48:38.929Z,59.63
2023-04-10T07:49:42.325Z,59.87
2023-04-10T07:50:45.376Z,59.03
2023-04-10T07:51:48.736Z,58.84
2023-04-10T07:52:51.648Z,59.26
2023-04-10T07:53:54.538Z,59.29
2023-04-10T07:54:57.450Z,58.79
2023-04-10T07:56:00.246Z,58.55
2023-04-10T07:57:03.029Z,58.60
2023-04-10T07:58:06.472Z,57.65
2023-04-10T07:59:09.503Z,58.17
2023-04-10T08:00:13.199Z,58.18
2023-04-10T08:01:15.959Z,58.32
2023-04-10T08:02:18.975Z,58.20
2023-04-10T08:03:22.967Z,58.79
2023-04-10T08:04:26.865Z,59.16
2023-04-10T08:05:29.888Z,59.25
2023-04-10T08:06:32.846Z,59.15
2023-04-10T08:07:36.471Z,58.39
2023-04-10T08:08:41.205Z,58.85
2023-04-10T08:09:44.375Z,58.69
2023-04-10T08:10:47.206Z,58.28
2023-04-10T08:11:50.190Z,58.03
2023-04-10T08:12:53.089Z,57.39
2023-04-10T08:13:58.298Z,57.68
2023-04-10T08:15:02.024Z,57.57
2023-04-10T08:16:05.232Z,57.78
2023-04-10T08:17:14.610Z,57.38
2023-04-10T08:18:17.934Z,57.77
2023-04-10T08:19:20.858Z,57.58
2023-04-10T08:20:24.088Z,57.77
2023-04-10T08:21:29.937Z,57.61
2023-04-10T08:22:32.946Z,57.38
2023-04-10T08:23:35.948Z,56.74
2023-04-10T08:24:38.947Z,57.41
2023-04-10T08:25:41.911Z,57.46
2023-04-10T08:26:44.717Z,57.27
2023-04-10T08:27:47.587Z,57.34
2023-04-10T08:28:52.730Z,56.65
2023-04-10T08:29:56.717Z,56.18
2023-04-10T08:30:59.874Z,55.44
2023-04-10T08:32:02.849Z,55.63
2023-04-10T08:33:05.887Z,55.87
2023-04-10T08:34:08.960Z,56.56
2023-04-10T08:35:11.894Z,56.34
2023-04-10T08:36:17.675Z,56.17
2023-04-10T08:37:21.947Z,57.30
2023-04-10T08:38:27.651Z,56.74
2023-04-10T08:39:30.712Z,56.24
2023-04-10T08:40:37.572Z,56.08
2023-04-10T08:41:41.702Z,55.68
2023-04-10T08:42:44.646Z,55.90
2023-04-10T08:43:49.588Z,55.55
2023-04-10T08:44:53.119Z,55.48
2023-04-10T08:45:56.335Z,55.38
2023-04-10T08:47:01.391Z,55.46
2023-04-10T08:48:07.893Z,55.19
2023-04-10T08:49:39.100Z,55.60
2023-04-10T08:50:43.691Z,55.29
2023-04-10T08:51:52.005Z,55.91
2023-04-10T08:53:00.327Z,54.95
2023-04-10T08:54:10.777Z,55.20
2023-04-10T08:55:14.823Z,54.92
2023-04-10T08:56:18.753Z,55.08
2023-04-10T08:57:24.947Z,54.47
2023-04-10T08:58:28.804Z,54.59
2023-04-10T08:59:31.934Z,54.65
2023-04-10T09:00:38.654Z,54.75
2023-04-10T09:01:42.041Z,53.96
2023-04-10T09:02:45.507Z,53.97
2023-04-10T09:03:48.993Z,53.86
2023-04-10T09:04:56.302Z,53.54
2023-04-10T09:06:04.219Z,53.28
2023-04-10T09:07:07.067Z,53.25
2023-04-10T09:08:12.234Z,53.81
2023-04-10T09:09:15.485Z,53.78
2023-04-10T09:10:18.370Z,54.04
2023-04-10T09:11:21.491Z,53.74
2023-04-10T09:12:24.357Z,53.53
2023-04-10T09:13:41.962Z,53.96
2023-04-10T09:14:45.087Z,53.79
2023-04-10T09:16:00.621Z,53.98
2023-04-10T09:17:17.205Z,53.94
2023-04-10T09:18:20.164Z,54.19
2023-04-10T09:19:30.669Z,54.25
2023-04-10T09:20:34.458Z,53.44
2023-04-10T09:21:37.220Z,53.37
2023-04-10T09:22:40.109Z,53.05
2023-04-10T09:23:44.890Z,52.97
2023-04-10T09:24:48.298Z,52.81
2023-04-10T09:25:51.664Z,52.89
2023-04-10T09:26:55.380Z,52.17
2023-04-10T09:28:03.828Z,52.37
2023-04-10T09:29:07.813Z,52.62
2023-04-10T09:30:11.096Z,52.56
2023-04-10T09:31:35.658Z,52.71
2023-04-10T09:32:49.033Z,52.74
2023-04-10T09:34:07.808Z,52.41
2023-04-10T09:35:12.633Z,52.58
2023-04-10T09:36:16.122Z,52.71
2023-04-10T09:37:21.007Z,53.27
2023-04-10T09:38:23.977Z,53.87
2023-04-10T09:39:41.137Z,53.22
2023-04-10T09:40:45.655Z,53.65
2023-04-10T09:41:53.102Z,53.82
2023-04-10T09:42:57.289Z,53.82
2023-04-10T09:44:12.028Z,53.26
2023-04-10T09:45:16.652Z,53.33
2023-04-10T09:46:28.811Z,53.77
2023-04-10T09:47:33.280Z,53.68
2023-04-10T09:48:36.438Z,54.14
2023-04-10T09:49:52.579Z,53.89
2023-04-10T09:50:55.779Z,53.73
2023-04-10T09:51:58.693Z,53.95
2023-04-10T09:53:01.561Z,54.26
2023-04-10T09:54:04.644Z,53.88
2023-04-10T09:55:08.656Z,54.11
2023-04-10T09:56:13.110Z,54.07
2023-04-10T09:57:20.252Z,54.22
2023-04-10T09:58:26.549Z,53.91
2023-04-10T09:59:29.750Z,53.46
2023-04-10T10:00:44.699Z,53.69
2023-04-10T10:01:47.645Z,53.89
2023-04-10T10:02:52.408Z,53.45
2023-04-10T10:03:58.990Z,53.44
2023-04-10T10:05:05.602Z,53.52
2023-04-10T10:06:09.816Z,53.58
2023-04-10T10:07:18.553Z,53.48
2023-04-10T10:08:22.428Z,53.47
2023-04-10T10:09:27.688Z,53.80
2023-04-10T10:10:33.026Z,53.71
2023-04-10T10:11:36.490Z,54.37
2023-04-10T10:12:59.524Z,54.19
2023-04-10T10:14:06.540Z,54.12
2023-04-10T10:15:19.786Z,54.66
2023-04-10T10:16:37.410Z,53.91
2023-04-10T10:17:55.864Z,54.04
2023-04-10T10:19:22.153Z,53.80
2023-04-10T10:20:26.541Z,53.75
2023-04-10T10:21:30.700Z,53.20
2023-04-10T10:22:35.238Z,53.18
2023-04-10T10:23:38.720Z,53.39
2023-04-10T10:24:47.569Z,53.41
2023-04-10T10:25:51.431Z,53.17
2023-04-10T10:26:57.359Z,53.87
2023-04-10T10:28:04.129Z,53.69
2023-04-10T10:29:11.332Z,54.00
2023-04-10T10:30:28.358Z,53.55
2023-04-10T10:31:37.605Z,53.45
2023-04-10T10:32:41.468Z,53.12
2023-04-10T10:33:47.160Z,53.24
2023-04-10T10:34:53.026Z,53.20
2023-04-10T10:36:00.236Z,53.04
2023-04-10T10:37:04.730Z,53.11
2023-04-10T10:38:08.362Z,53.06
2023-04-10T10:39:42.436Z,53.13
2023-04-10T10:40:54.845Z,53.59
2023-04-10T10:42:48.649Z,53.62
2023-04-10T10:44:04.846Z,53.70
2023-04-10T10:45:17.570Z,53.33
2023-04-10T10:46:47.546Z,53.25
2023-04-10T10:47:54.977Z,53.70
2023-04-10T10:48:59.470Z,53.81
2023-04-10T10:50:03.946Z,53.97
2023-04-10T10:51:07.159Z,54.63
2023-04-10T10:52:10.006Z,54.93
2023-04-10T10:53:31.612Z,54.58
2023-04-10T10:54:36.603Z,54.44
2023-04-10T10:55:41.881Z,54.38
2023-04-10T10:56:44.672Z,54.55
2023-04-10T10:57:48.481Z,55.21
2023-04-10T10:58:54.496Z,55.42
2023-04-10T10:59:57.720Z,55.61
2023-04-10T11:01:00.518Z,56.62
2023-04-10T11:02:16.947Z,56.32
2023-04-10T11:03:20.058Z,56.11
2023-04-10T11:04:43.720Z,56.98
2023-04-10T11:05:57.307Z,56.03
2023-04-10T11:07:00.222Z,55.51
2023-04-10T11:08:03.368Z,55.86
2023-04-10T11:09:06.450Z,55.26
2023-04-10T11:10:09.497Z,55.64
2023-04-10T11:11:16.051Z,55.36
2023-04-10T11:12:25.585Z,55.45
2023-04-10T11:13:29.025Z,55.17
2023-04-10T11:14:33.705Z,54.97
2023-04-10T11:15:37.150Z,54.61
2023-04-10T11:16:41.583Z,54.66
2023-04-10T11:17:52.405Z,54.52
2023-04-10T11:19:06.322Z,54.05
2023-04-10T11:20:27.512Z,54.52
2023-04-10T11:21:31.596Z,54.60
2023-04-10T11:23:06.628Z,54.77
2023-04-10T11:24:09.981Z,54.64
2023-04-10T11:25:12.816Z,54.71
2023-04-10T11:26:42.801Z,54.90
2023-04-10T11:27:49.229Z,54.34
2023-04-10T11:28:52.312Z,54.02
2023-04-10T11:29:56.197Z,53.81
2023-04-10T11:31:20.035Z,52.63
2023-04-10T11:32:23.042Z,52.48
2023-04-10T11:33:26.019Z,51.45
2023-04-10T11:34:31.015Z,50.20
2023-04-10T11:35:34.177Z,51.86
2023-04-10T11:36:43.128Z,52.16
2023-04-10T11:37:46.295Z,51.57
2023-04-10T11:38:59.036Z,51.86
2023-04-10T11:40:06.457Z,51.29
2023-04-10T11:41:09.664Z,50.60
2023-04-10T11:42:12.948Z,50.61
2023-04-10T11:43:16.037Z,51.32
2023-04-10T11:44:39.658Z,51.28
2023-04-10T11:45:42.771Z,51.21
2023-04-10T11:46:47.488Z,51.00
2023-04-10T11:47:52.252Z,51.30
2023-04-10T11:49:03.582Z,50.36
2023-04-10T11:50:08.188Z,50.32
2023-04-10T11:51:13.469Z,49.64
2023-04-10T11:52:25.815Z,49.58
2023-04-10T11:53:30.336Z,49.25
2023-04-10T11:54:33.271Z,48.70
2023-04-10T11:55:39.815Z,48.26
2023-04-10T11:56:45.839Z,48.16
2023-04-10T11:57:49.026Z,48.71
2023-04-10T11:58:54.434Z,47.79
2023-04-10T11:59:59.134Z,47.89
2023-04-10T12:01:05.867Z,47.12
2023-04-10T12:02:11.803Z,46.98
2023-04-10T12:03:14.851Z,46.76
2023-04-10T12:04:19.730Z,46.21
2023-04-10T12:05:22.734Z,45.74
2023-04-10T12:06:26.113Z,45.49
2023-04-10T12:07:30.820Z,45.81
2023-04-10T12:08:38.019Z,46.63
2023-04-10T12:09:40.966Z,47.19
2023-04-10T12:10:47.494Z,46.81
2023-04-10T12:12:03.738Z,46.86
2023-04-10T12:13:07.675Z,46.29
2023-04-10T12:14:10.791Z,45.98
2023-04-10T12:15:30.814Z,45.06
2023-04-10T12:16:33.966Z,45.65
2023-04-10T12:17:37.893Z,45.42
2023-04-10T12:18:41.233Z,45.24
2023-04-10T12:19:44.329Z,43.74
2023-04-10T12:20:48.061Z,44.96
2023-04-10T12:21:51.631Z,43.69
2023-04-10T12:22:56.745Z,43.94
2023-04-10T12:23:59.632Z,43.37
2023-04-10T12:25:02.621Z,42.86
2023-04-10T12:26:16.465Z,43.45
2023-04-10T12:27:28.683Z,43.38
2023-04-10T12:28:32.053Z,43.16
2023-04-10T12:29:34.908Z,42.06
2023-04-10T12:30:37.882Z,41.43
2023-04-10T12:31:41.073Z,40.84
2023-04-10T12:32:52.505Z,40.91
2023-04-10T12:33:57.985Z,41.21
2023-04-10T12:35:03.627Z,40.74
2023-04-10T12:36:06.806Z,40.13
2023-04-10T12:37:12.523Z,40.15
2023-04-10T12:38:15.784Z,39.80
2023-04-10T12:39:24.237Z,39.48
2023-04-10T12:40:27.655Z,40.89
2023-04-10T12:41:32.522Z,41.07
2023-04-10T12:42:41.081Z,40.74
2023-04-10T12:43:44.886Z,40.93
2023-04-10T12:44:52.733Z,40.54
2023-04-10T12:45:56.369Z,40.65
2023-04-10T12:47:01.736Z,40.26
2023-04-10T12:48:04.730Z,41.48
2023-04-10T12:49:15.498Z,41.18
2023-04-10T12:50:21.041Z,41.04
2023-04-10T12:51:47.161Z,40.60
2023-04-10T12:53:11.801Z,40.58
2023-04-10T12:54:41.200Z,40.67
2023-04-10T12:56:01.216Z,39.88
2023-04-10T12:57:04.628Z,39.12
2023-04-10T12:58:18.540Z,37.99
2023-04-10T12:59:22.977Z,37.48
2023-04-10T13:00:26.575Z,36.57
2023-04-10T13:01:29.411Z,35.39
2023-04-10T13:02:32.536Z,34.96
2023-04-10T13:03:37.769Z,35.92
2023-04-10T13:04:41.269Z,36.18
2023-04-10T13:05:44.654Z,35.14
2023-04-10T13:06:49.364Z,34.83
2023-04-10T13:07:53.000Z,34.14
2023-04-10T13:08:56.672Z,33.57
2023-04-10T13:10:00.887Z,33.70
2023-04-10T13:11:03.806Z,33.54
2023-04-10T13:12:06.894Z,33.08
2023-04-10T13:13:12.077Z,32.48
2023-04-10T13:14:14.883Z,32.22
2023-04-10T13:15:17.822Z,32.05
2023-04-10T13:16:20.870Z,33.10
2023-04-10T13:17:25.446Z,33.29
2023-04-10T13:18:28.412Z,32.35
2023-04-10T13:19:31.853Z,32.22
2023-04-10T13:20:36.222Z,32.37
2023-04-10T13:21:39.138Z,32.40
2023-04-10T13:22:42.433Z,32.77
2023-04-10T13:23:47.085Z,33.19
2023-04-10T13:24:50.003Z,32.85
2023-04-10T13:25:53.758Z,33.12
2023-04-10T13:26:58.522Z,33.47
2023-04-10T13:28:01.812Z,33.10
2023-04-10T13:29:04.915Z,32.76
2023-04-10T13:30:08.355Z,32.59
2023-04-10T13:31:11.222Z,32.63
2023-04-10T13:32:14.142Z,32.96
2023-04-10T13:33:17.430Z,32.35
2023-04-10T13:34:20.284Z,32.96
2023-04-10T13:35:23.377Z,33.78
2023-04-10T13:36:26.820Z,32.71
2023-04-10T13:37:29.841Z,32.28
2023-04-10T13:38:32.715Z,32.48
2023-04-10T13:39:35.880Z,33.17
2023-04-10T13:40:39.225Z,30.99
2023-04-10T13:41:42.110Z,31.78
2023-04-10T13:42:44.825Z,31.80
2023-04-10T13:43:47.931Z,30.68
2023-04-10T13:44:50.735Z,30.42
2023-04-10T13:45:53.528Z,30.67
2023-04-10T13:46:58.110Z,29.28
2023-04-10T13:48:01.121Z,30.57
2023-04-10T13:49:04.198Z,29.69
2023-04-10T13:50:07.918Z,28.84
2023-04-10T13:51:10.884Z,28.67
2023-04-10T13:52:13.712Z,28.88
2023-04-10T13:53:16.741Z,28.66
2023-04-10T13:54:20.197Z,29.15
2023-04-10T13:55:23.062Z,28.47
2023-04-10T13:56:26.059Z,28.48
2023-04-10T13:57:28.973Z,28.21
2023-04-10T13:58:34.333Z,28.20
2023-04-10T13:59:37.599Z,29.15
2023-04-10T14:00:42.978Z,29.74
2023-04-10T14:01:45.917Z,29.76
2023-04-10T14:02:48.838Z,29.83
2023-04-10T14:03:51.963Z,29.67
2023-04-10T14:04:55.604Z,29.29
2023-04-10T14:05:58.438Z,29.61
2023-04-10T14:07:02.209Z,29.23
2023-04-10T14:08:05.781Z,27.55
2023-04-10T14:09:09.269Z,28.42
2023-04-10T14:10:12.385Z,28.87
2023-04-10T14:11:15.288Z,29.32
2023-04-10T14:12:19.388Z,29.06
2023-04-10T14:13:22.333Z,28.94
2023-04-10T14:14:25.284Z,29.16
2023-04-10T14:15:28.609Z,28.92
2023-04-10T14:16:31.508Z,28.28
2023-04-10T14:17:34.964Z,27.96
2023-04-10T14:18:37.804Z,27.84
2023-04-10T14:19:42.168Z,28.20
2023-04-10T14:20:45.276Z,28.09
2023-04-10T14:21:48.126Z,27.90
2023-04-10T14:22:51.060Z,28.10
2023-04-10T14:23:53.890Z,28.01
2023-04-10T14:25:09.259Z,27.98
2023-04-10T14:26:15.360Z,28.05
2023-04-10T14:27:18.310Z,27.78
2023-04-10T14:28:21.254Z,28.22
2023-04-10T14:29:36.340Z,28.63
2023-04-10T14:30:40.853Z,28.85